Terminal Aerodrome Forecast
Issued by NWS Louisville, KY

Home | Current Version | Previous Version | Text Only | Print | Product List | Glossary On
Versions: 1 2 3 4 5 6 7 8 9 10 11 12 13 14 15 16 17 18 19
362
FTUS43 KLMK 252207 AAB
TAFBWG
TAF AMD
KBWG 252207Z 2522/2618 08005KT 4SM RA BR VCTS BKN050CB OVC200
     FM260000 VRB05KT P6SM BKN080 OVC250
     FM260300 VRB03KT 4SM BR BKN250
     FM261200 22008KT P6SM SCT050 BKN250=

USA.gov is the U.S. government's official web portal to all federal, state and local government web resources and services.